sensor_id;sensor_type;location;lat;lon;timestamp;P1;durP1;ratioP1;P2;durP2;ratioP2
16516;SDS011;8371;52.272;9.746;2022-10-19T00:00:49;1.53;;;1.00;;
16516;SDS011;8371;52.272;9.746;2022-10-19T00:03:15;1.03;;;1.00;;
16516;SDS011;8371;52.272;9.746;2022-10-19T00:05:41;1.30;;;1.20;;
16516;SDS011;8371;52.272;9.746;2022-10-19T00:08:07;0.60;;;0.60;;
16516;SDS011;8371;52.272;9.746;2022-10-19T00:10:33;1.50;;;0.73;;
16516;SDS011;8371;52.272;9.746;2022-10-19T00:12:59;1.10;;;1.00;;
16516;SDS011;8371;52.272;9.746;2022-10-19T00:15:24;2.20;;;0.97;;
16516;SDS011;8371;52.272;9.746;2022-10-19T00:17:50;0.97;;;0.97;;
16516;SDS011;8371;52.272;9.746;2022-10-19T00:20:16;1.43;;;1.17;;
16516;SDS011;8371;52.272;9.746;2022-10-19T00:22:41;5.00;;;0.90;;
16516;SDS011;8371;52.272;9.746;2022-10-19T00:25:07;0.90;;;0.90;;
16516;SDS011;8371;52.272;9.746;2022-10-19T00:27:33;1.93;;;1.00;;
16516;SDS011;8371;52.272;9.746;2022-10-19T00:29:59;1.20;;;1.10;;
16516;SDS011;8371;52.272;9.746;2022-10-19T00:32:26;2.53;;;1.00;;
16516;SDS011;8371;52.272;9.746;2022-10-19T00:34:51;1.47;;;1.40;;
16516;SDS011;8371;52.272;9.746;2022-10-19T00:37:17;1.90;;;1.10;;
16516;SDS011;8371;52.272;9.746;2022-10-19T00:39:43;2.00;;;0.80;;
16516;SDS011;8371;52.272;9.746;2022-10-19T00:42:09;0.73;;;0.70;;
16516;SDS011;8371;52.272;9.746;2022-10-19T00:47:06;1.10;;;0.70;;
16516;SDS011;8371;52.272;9.746;2022-10-19T00:49:34;4.83;;;0.83;;
16516;SDS011;8371;52.272;9.746;2022-10-19T00:52:03;1.43;;;1.27;;
16516;SDS011;8371;52.272;9.746;2022-10-19T00:54:31;0.80;;;0.80;;
16516;SDS011;8371;52.272;9.746;2022-10-19T00:56:59;0.97;;;0.87;;
16516;SDS011;8371;52.272;9.746;2022-10-19T00:59:25;0.70;;;0.70;;
16516;SDS011;8371;52.272;9.746;2022-10-19T01:01:52;1.57;;;0.80;;
16516;SDS011;8371;52.272;9.746;2022-10-19T01:04:19;1.13;;;1.03;;
16516;SDS011;8371;52.272;9.746;2022-10-19T01:06:46;0.80;;;0.80;;
16516;SDS011;8371;52.272;9.746;2022-10-19T01:09:12;0.80;;;0.80;;
16516;SDS011;8371;52.272;9.746;2022-10-19T01:11:42;0.73;;;0.73;;
16516;SDS011;8371;52.272;9.746;2022-10-19T01:14:23;0.83;;;0.83;;
16516;SDS011;8371;52.272;9.746;2022-10-19T01:25:13;4.87;;;1.07;;
16516;SDS011;8371;52.272;9.746;2022-10-19T01:30:38;0.77;;;0.77;;
16516;SDS011;8371;52.272;9.746;2022-10-19T01:36:03;1.47;;;0.80;;
16516;SDS011;8371;52.272;9.746;2022-10-19T01:44:34;0.93;;;0.73;;
16516;SDS011;8371;52.272;9.746;2022-10-19T01:46:59;1.43;;;1.00;;
16516;SDS011;8371;52.272;9.746;2022-10-19T01:52:17;2.53;;;1.07;;
16516;SDS011;8371;52.272;9.746;2022-10-19T01:54:46;2.40;;;0.70;;
16516;SDS011;8371;52.272;9.746;2022-10-19T01:57:16;1.27;;;0.70;;
16516;SDS011;8371;52.272;9.746;2022-10-19T01:59:47;1.23;;;1.10;;
16516;SDS011;8371;52.272;9.746;2022-10-19T02:02:14;0.50;;;0.50;;
16516;SDS011;8371;52.272;9.746;2022-10-19T02:04:42;0.50;;;0.50;;
16516;SDS011;8371;52.272;9.746;2022-10-19T02:07:08;1.43;;;0.60;;
16516;SDS011;8371;52.272;9.746;2022-10-19T02:09:36;1.17;;;0.73;;
16516;SDS011;8371;52.272;9.746;2022-10-19T02:12:02;0.70;;;0.70;;
16516;SDS011;8371;52.272;9.746;2022-10-19T02:14:31;0.77;;;0.50;;
16516;SDS011;8371;52.272;9.746;2022-10-19T02:17:07;1.17;;;0.70;;
16516;SDS011;8371;52.272;9.746;2022-10-19T02:19:36;0.77;;;0.50;;
16516;SDS011;8371;52.272;9.746;2022-10-19T02:22:02;0.60;;;0.60;;
16516;SDS011;8371;52.272;9.746;2022-10-19T02:24:28;1.07;;;0.70;;
16516;SDS011;8371;52.272;9.746;2022-10-19T02:26:54;1.03;;;0.40;;
16516;SDS011;8371;52.272;9.746;2022-10-19T02:29:20;0.60;;;0.50;;
16516;SDS011;8371;52.272;9.746;2022-10-19T02:31:46;4.53;;;0.57;;
16516;SDS011;8371;52.272;9.746;2022-10-19T02:34:13;0.80;;;0.57;;
16516;SDS011;8371;52.272;9.746;2022-10-19T02:36:39;0.67;;;0.50;;
16516;SDS011;8371;52.272;9.746;2022-10-19T02:39:05;0.63;;;0.57;;
16516;SDS011;8371;52.272;9.746;2022-10-19T02:41:37;1.30;;;0.73;;
16516;SDS011;8371;52.272;9.746;2022-10-19T02:44:14;0.57;;;0.57;;
16516;SDS011;8371;52.272;9.746;2022-10-19T02:46:43;0.60;;;0.60;;
16516;SDS011;8371;52.272;9.746;2022-10-19T02:49:11;0.70;;;0.70;;
16516;SDS011;8371;52.272;9.746;2022-10-19T02:51:39;1.23;;;0.60;;
16516;SDS011;8371;52.272;9.746;2022-10-19T02:54:07;0.67;;;0.67;;
16516;SDS011;8371;52.272;9.746;2022-10-19T02:56:33;1.13;;;0.57;;
16516;SDS011;8371;52.272;9.746;2022-10-19T02:58:59;0.40;;;0.40;;
16516;SDS011;8371;52.272;9.746;2022-10-19T03:01:27;0.80;;;0.80;;
16516;SDS011;8371;52.272;9.746;2022-10-19T03:03:52;0.93;;;0.70;;
16516;SDS011;8371;52.272;9.746;2022-10-19T03:06:18;0.50;;;0.40;;
16516;SDS011;8371;52.272;9.746;2022-10-19T03:08:44;0.33;;;0.33;;
16516;SDS011;8371;52.272;9.746;2022-10-19T03:11:10;0.90;;;0.57;;
16516;SDS011;8371;52.272;9.746;2022-10-19T03:13:35;0.50;;;0.50;;
16516;SDS011;8371;52.272;9.746;2022-10-19T03:16:06;1.07;;;0.60;;
16516;SDS011;8371;52.272;9.746;2022-10-19T03:18:32;1.17;;;0.50;;
16516;SDS011;8371;52.272;9.746;2022-10-19T03:21:05;1.73;;;0.70;;
16516;SDS011;8371;52.272;9.746;2022-10-19T03:23:33;0.47;;;0.40;;
16516;SDS011;8371;52.272;9.746;2022-10-19T03:25:59;0.53;;;0.53;;
16516;SDS011;8371;52.272;9.746;2022-10-19T03:28:26;0.50;;;0.40;;
16516;SDS011;8371;52.272;9.746;2022-10-19T03:30:52;2.80;;;0.37;;
16516;SDS011;8371;52.272;9.746;2022-10-19T03:33:18;0.60;;;0.60;;
16516;SDS011;8371;52.272;9.746;2022-10-19T03:35:44;0.77;;;0.77;;
16516;SDS011;8371;52.272;9.746;2022-10-19T03:38:10;0.50;;;0.50;;
16516;SDS011;8371;52.272;9.746;2022-10-19T03:40:35;1.07;;;0.80;;
16516;SDS011;8371;52.272;9.746;2022-10-19T03:43:01;1.27;;;0.90;;
16516;SDS011;8371;52.272;9.746;2022-10-19T03:45:27;0.63;;;0.50;;
16516;SDS011;8371;52.272;9.746;2022-10-19T03:47:53;0.83;;;0.50;;
16516;SDS011;8371;52.272;9.746;2022-10-19T03:50:18;0.73;;;0.60;;
16516;SDS011;8371;52.272;9.746;2022-10-19T03:52:45;0.80;;;0.80;;
16516;SDS011;8371;52.272;9.746;2022-10-19T03:55:14;0.60;;;0.60;;
16516;SDS011;8371;52.272;9.746;2022-10-19T03:57:40;1.00;;;0.60;;
16516;SDS011;8371;52.272;9.746;2022-10-19T04:00:06;3.47;;;0.50;;
16516;SDS011;8371;52.272;9.746;2022-10-19T04:02:34;0.53;;;0.53;;
16516;SDS011;8371;52.272;9.746;2022-10-19T04:05:00;0.63;;;0.63;;
16516;SDS011;8371;52.272;9.746;2022-10-19T04:07:25;0.70;;;0.70;;
16516;SDS011;8371;52.272;9.746;2022-10-19T04:09:51;0.90;;;0.80;;
16516;SDS011;8371;52.272;9.746;2022-10-19T04:12:17;0.80;;;0.60;;
16516;SDS011;8371;52.272;9.746;2022-10-19T04:14:42;0.63;;;0.63;;
16516;SDS011;8371;52.272;9.746;2022-10-19T04:17:09;0.83;;;0.83;;
16516;SDS011;8371;52.272;9.746;2022-10-19T04:19:35;0.93;;;0.83;;
16516;SDS011;8371;52.272;9.746;2022-10-19T04:22:01;0.97;;;0.90;;
16516;SDS011;8371;52.272;9.746;2022-10-19T04:24:27;0.80;;;0.80;;
16516;SDS011;8371;52.272;9.746;2022-10-19T04:26:53;0.70;;;0.50;;
16516;SDS011;8371;52.272;9.746;2022-10-19T04:29:20;1.00;;;1.00;;
16516;SDS011;8371;52.272;9.746;2022-10-19T04:31:48;0.80;;;0.80;;
16516;SDS011;8371;52.272;9.746;2022-10-19T04:34:15;0.87;;;0.87;;
16516;SDS011;8371;52.272;9.746;2022-10-19T04:36:42;0.60;;;0.60;;
16516;SDS011;8371;52.272;9.746;2022-10-19T04:39:07;0.60;;;0.60;;
16516;SDS011;8371;52.272;9.746;2022-10-19T04:41:33;1.33;;;0.90;;
16516;SDS011;8371;52.272;9.746;2022-10-19T04:44:00;1.33;;;0.77;;
16516;SDS011;8371;52.272;9.746;2022-10-19T04:46:27;2.63;;;0.70;;
16516;SDS011;8371;52.272;9.746;2022-10-19T04:48:55;0.83;;;0.70;;
16516;SDS011;8371;52.272;9.746;2022-10-19T04:51:22;0.50;;;0.50;;
16516;SDS011;8371;52.272;9.746;2022-10-19T04:53:48;0.60;;;0.60;;
16516;SDS011;8371;52.272;9.746;2022-10-19T04:56:15;0.73;;;0.73;;
16516;SDS011;8371;52.272;9.746;2022-10-19T04:58:42;1.30;;;0.40;;
16516;SDS011;8371;52.272;9.746;2022-10-19T05:01:09;0.60;;;0.60;;
16516;SDS011;8371;52.272;9.746;2022-10-19T05:03:38;0.63;;;0.63;;
16516;SDS011;8371;52.272;9.746;2022-10-19T05:06:03;0.70;;;0.70;;
16516;SDS011;8371;52.272;9.746;2022-10-19T05:08:30;0.60;;;0.60;;
16516;SDS011;8371;52.272;9.746;2022-10-19T05:10:59;1.50;;;0.93;;
16516;SDS011;8371;52.272;9.746;2022-10-19T05:13:32;0.80;;;0.80;;
16516;SDS011;8371;52.272;9.746;2022-10-19T05:15:59;1.37;;;0.87;;
16516;SDS011;8371;52.272;9.746;2022-10-19T05:18:27;0.93;;;0.90;;
16516;SDS011;8371;52.272;9.746;2022-10-19T05:21:11;1.57;;;0.90;;
16516;SDS011;8371;52.272;9.746;2022-10-19T05:23:38;1.00;;;1.00;;
16516;SDS011;8371;52.272;9.746;2022-10-19T05:26:09;1.23;;;0.90;;
16516;SDS011;8371;52.272;9.746;2022-10-19T05:28:37;0.83;;;0.83;;
16516;SDS011;8371;52.272;9.746;2022-10-19T05:31:14;0.70;;;0.70;;
16516;SDS011;8371;52.272;9.746;2022-10-19T05:33:38;0.90;;;0.90;;
16516;SDS011;8371;52.272;9.746;2022-10-19T05:36:12;0.97;;;0.97;;
16516;SDS011;8371;52.272;9.746;2022-10-19T05:38:43;0.73;;;0.73;;
16516;SDS011;8371;52.272;9.746;2022-10-19T05:41:10;1.20;;;0.97;;
16516;SDS011;8371;52.272;9.746;2022-10-19T05:43:36;0.73;;;0.73;;
16516;SDS011;8371;52.272;9.746;2022-10-19T05:46:07;0.70;;;0.70;;
16516;SDS011;8371;52.272;9.746;2022-10-19T05:48:34;0.70;;;0.70;;
16516;SDS011;8371;52.272;9.746;2022-10-19T05:51:00;3.03;;;0.90;;
16516;SDS011;8371;52.272;9.746;2022-10-19T05:53:28;1.00;;;1.00;;
16516;SDS011;8371;52.272;9.746;2022-10-19T05:55:54;2.83;;;0.90;;
16516;SDS011;8371;52.272;9.746;2022-10-19T05:58:19;0.70;;;0.70;;
16516;SDS011;8371;52.272;9.746;2022-10-19T06:00:55;0.83;;;0.73;;
16516;SDS011;8371;52.272;9.746;2022-10-19T06:03:23;4.73;;;1.20;;
16516;SDS011;8371;52.272;9.746;2022-10-19T06:05:51;0.80;;;0.80;;
16516;SDS011;8371;52.272;9.746;2022-10-19T06:08:18;2.53;;;0.90;;
16516;SDS011;8371;52.272;9.746;2022-10-19T06:10:45;2.70;;;1.30;;
16516;SDS011;8371;52.272;9.746;2022-10-19T06:13:11;0.80;;;0.80;;
16516;SDS011;8371;52.272;9.746;2022-10-19T06:15:38;0.73;;;0.73;;
16516;SDS011;8371;52.272;9.746;2022-10-19T06:18:05;1.27;;;0.70;;
16516;SDS011;8371;52.272;9.746;2022-10-19T06:20:33;0.97;;;0.97;;
16516;SDS011;8371;52.272;9.746;2022-10-19T06:23:00;0.60;;;0.60;;
16516;SDS011;8371;52.272;9.746;2022-10-19T06:25:25;2.00;;;0.80;;
16516;SDS011;8371;52.272;9.746;2022-10-19T06:27:51;0.77;;;0.77;;
16516;SDS011;8371;52.272;9.746;2022-10-19T06:30:17;0.80;;;0.80;;
16516;SDS011;8371;52.272;9.746;2022-10-19T06:32:43;0.73;;;0.70;;
16516;SDS011;8371;52.272;9.746;2022-10-19T06:35:08;0.60;;;0.60;;
16516;SDS011;8371;52.272;9.746;2022-10-19T06:37:34;0.70;;;0.70;;
16516;SDS011;8371;52.272;9.746;2022-10-19T06:40:00;1.47;;;0.60;;
16516;SDS011;8371;52.272;9.746;2022-10-19T06:42:25;0.70;;;0.70;;
16516;SDS011;8371;52.272;9.746;2022-10-19T06:44:51;1.00;;;1.00;;
16516;SDS011;8371;52.272;9.746;2022-10-19T06:47:17;0.80;;;0.80;;
16516;SDS011;8371;52.272;9.746;2022-10-19T06:49:42;0.70;;;0.70;;
16516;SDS011;8371;52.272;9.746;2022-10-19T06:52:08;0.50;;;0.50;;
16516;SDS011;8371;52.272;9.746;2022-10-19T06:54:34;0.90;;;0.90;;
16516;SDS011;8371;52.272;9.746;2022-10-19T06:57:00;0.90;;;0.90;;
16516;SDS011;8371;52.272;9.746;2022-10-19T06:59:25;1.53;;;1.17;;
16516;SDS011;8371;52.272;9.746;2022-10-19T07:01:51;0.80;;;0.80;;
16516;SDS011;8371;52.272;9.746;2022-10-19T07:04:17;1.27;;;0.63;;
16516;SDS011;8371;52.272;9.746;2022-10-19T07:06:42;1.27;;;1.17;;
16516;SDS011;8371;52.272;9.746;2022-10-19T07:09:08;1.30;;;0.90;;
16516;SDS011;8371;52.272;9.746;2022-10-19T07:11:34;1.30;;;1.23;;
16516;SDS011;8371;52.272;9.746;2022-10-19T07:13:59;1.40;;;1.00;;
16516;SDS011;8371;52.272;9.746;2022-10-19T07:16:25;0.97;;;0.87;;
16516;SDS011;8371;52.272;9.746;2022-10-19T07:18:51;1.00;;;0.80;;
16516;SDS011;8371;52.272;9.746;2022-10-19T07:21:18;0.97;;;0.97;;
16516;SDS011;8371;52.272;9.746;2022-10-19T07:23:46;1.60;;;0.80;;
16516;SDS011;8371;52.272;9.746;2022-10-19T07:26:14;4.40;;;1.03;;
16516;SDS011;8371;52.272;9.746;2022-10-19T07:28:43;2.93;;;1.00;;
16516;SDS011;8371;52.272;9.746;2022-10-19T07:31:11;2.27;;;1.00;;
16516;SDS011;8371;52.272;9.746;2022-10-19T07:33:39;1.40;;;1.30;;
16516;SDS011;8371;52.272;9.746;2022-10-19T07:36:05;2.83;;;0.97;;
16516;SDS011;8371;52.272;9.746;2022-10-19T07:38:33;0.60;;;0.60;;
16516;SDS011;8371;52.272;9.746;2022-10-19T07:41:00;0.90;;;0.90;;
16516;SDS011;8371;52.272;9.746;2022-10-19T07:43:28;1.93;;;1.00;;
16516;SDS011;8371;52.272;9.746;2022-10-19T07:45:58;1.90;;;1.20;;
16516;SDS011;8371;52.272;9.746;2022-10-19T07:48:24;0.83;;;0.80;;
16516;SDS011;8371;52.272;9.746;2022-10-19T07:50:50;3.97;;;0.73;;
16516;SDS011;8371;52.272;9.746;2022-10-19T07:53:15;1.73;;;0.97;;
16516;SDS011;8371;52.272;9.746;2022-10-19T07:55:41;2.17;;;0.80;;
16516;SDS011;8371;52.272;9.746;2022-10-19T07:58:07;1.70;;;0.77;;
16516;SDS011;8371;52.272;9.746;2022-10-19T08:00:32;2.20;;;0.87;;
16516;SDS011;8371;52.272;9.746;2022-10-19T08:02:58;1.53;;;0.73;;
16516;SDS011;8371;52.272;9.746;2022-10-19T08:05:24;1.80;;;0.67;;
16516;SDS011;8371;52.272;9.746;2022-10-19T08:07:49;2.57;;;0.70;;
16516;SDS011;8371;52.272;9.746;2022-10-19T08:10:15;2.97;;;1.07;;
16516;SDS011;8371;52.272;9.746;2022-10-19T08:12:41;1.37;;;0.87;;
16516;SDS011;8371;52.272;9.746;2022-10-19T08:15:07;1.10;;;0.83;;
16516;SDS011;8371;52.272;9.746;2022-10-19T08:17:36;2.80;;;0.77;;
16516;SDS011;8371;52.272;9.746;2022-10-19T08:20:02;0.70;;;0.70;;
16516;SDS011;8371;52.272;9.746;2022-10-19T08:22:29;4.30;;;0.80;;
16516;SDS011;8371;52.272;9.746;2022-10-19T08:24:54;2.77;;;1.00;;
16516;SDS011;8371;52.272;9.746;2022-10-19T08:27:20;2.93;;;0.73;;
16516;SDS011;8371;52.272;9.746;2022-10-19T08:29:46;1.90;;;0.53;;
16516;SDS011;8371;52.272;9.746;2022-10-19T08:32:11;2.60;;;0.77;;
16516;SDS011;8371;52.272;9.746;2022-10-19T08:34:37;3.03;;;0.80;;
16516;SDS011;8371;52.272;9.746;2022-10-19T08:37:03;1.20;;;0.60;;
16516;SDS011;8371;52.272;9.746;2022-10-19T08:39:29;0.87;;;0.70;;
16516;SDS011;8371;52.272;9.746;2022-10-19T08:42:00;4.13;;;0.90;;
16516;SDS011;8371;52.272;9.746;2022-10-19T08:49:52;0.97;;;0.83;;
16516;SDS011;8371;52.272;9.746;2022-10-19T08:52:21;3.90;;;1.00;;
16516;SDS011;8371;52.272;9.746;2022-10-19T08:55:02;0.57;;;0.57;;
16516;SDS011;8371;52.272;9.746;2022-10-19T09:00:18;1.37;;;1.20;;
16516;SDS011;8371;52.272;9.746;2022-10-19T09:08:24;2.33;;;0.50;;
16516;SDS011;8371;52.272;9.746;2022-10-19T09:10:50;2.27;;;1.20;;
16516;SDS011;8371;52.272;9.746;2022-10-19T09:16:13;1.80;;;1.70;;
16516;SDS011;8371;52.272;9.746;2022-10-19T09:18:37;1.20;;;1.20;;
16516;SDS011;8371;52.272;9.746;2022-10-19T09:21:03;1.23;;;1.23;;
16516;SDS011;8371;52.272;9.746;2022-10-19T09:24:28;1.13;;;0.90;;
16516;SDS011;8371;52.272;9.746;2022-10-19T09:26:14;1.23;;;1.13;;
16516;SDS011;8371;52.272;9.746;2022-10-19T09:28:44;1.00;;;1.00;;
16516;SDS011;8371;52.272;9.746;2022-10-19T09:31:21;3.07;;;0.97;;
16516;SDS011;8371;52.272;9.746;2022-10-19T09:33:56;1.17;;;1.17;;
16516;SDS011;8371;52.272;9.746;2022-10-19T09:36:48;0.90;;;0.90;;
16516;SDS011;8371;52.272;9.746;2022-10-19T09:39:03;1.17;;;1.00;;
16516;SDS011;8371;52.272;9.746;2022-10-19T09:41:29;0.80;;;0.63;;
16516;SDS011;8371;52.272;9.746;2022-10-19T09:43:55;1.27;;;0.67;;
16516;SDS011;8371;52.272;9.746;2022-10-19T09:46:33;1.33;;;0.67;;
16516;SDS011;8371;52.272;9.746;2022-10-19T09:49:03;1.40;;;0.60;;
16516;SDS011;8371;52.272;9.746;2022-10-19T09:51:40;1.00;;;0.70;;
16516;SDS011;8371;52.272;9.746;2022-10-19T09:54:23;0.50;;;0.50;;
16516;SDS011;8371;52.272;9.746;2022-10-19T09:56:51;0.63;;;0.50;;
16516;SDS011;8371;52.272;9.746;2022-10-19T09:59:22;0.80;;;0.80;;
16516;SDS011;8371;52.272;9.746;2022-10-19T10:02:01;0.57;;;0.57;;
16516;SDS011;8371;52.272;9.746;2022-10-19T10:04:30;0.60;;;0.57;;
16516;SDS011;8371;52.272;9.746;2022-10-19T10:06:56;0.33;;;0.33;;
16516;SDS011;8371;52.272;9.746;2022-10-19T10:09:24;1.60;;;0.67;;
16516;SDS011;8371;52.272;9.746;2022-10-19T10:11:52;0.70;;;0.70;;
16516;SDS011;8371;52.272;9.746;2022-10-19T10:14:28;0.60;;;0.50;;
16516;SDS011;8371;52.272;9.746;2022-10-19T10:17:03;3.20;;;1.03;;
16516;SDS011;8371;52.272;9.746;2022-10-19T10:19:31;0.50;;;0.50;;
16516;SDS011;8371;52.272;9.746;2022-10-19T10:22:00;0.50;;;0.50;;
16516;SDS011;8371;52.272;9.746;2022-10-19T10:24:29;0.80;;;0.53;;
16516;SDS011;8371;52.272;9.746;2022-10-19T10:26:58;0.50;;;0.50;;
16516;SDS011;8371;52.272;9.746;2022-10-19T10:29:30;0.83;;;0.60;;
16516;SDS011;8371;52.272;9.746;2022-10-19T10:34:42;0.30;;;0.30;;
16516;SDS011;8371;52.272;9.746;2022-10-19T10:37:07;0.67;;;0.57;;
16516;SDS011;8371;52.272;9.746;2022-10-19T10:39:42;0.40;;;0.40;;
16516;SDS011;8371;52.272;9.746;2022-10-19T10:42:10;1.50;;;0.47;;
16516;SDS011;8371;52.272;9.746;2022-10-19T10:44:47;1.50;;;0.67;;
16516;SDS011;8371;52.272;9.746;2022-10-19T10:47:15;0.83;;;0.60;;
16516;SDS011;8371;52.272;9.746;2022-10-19T10:49:51;1.70;;;0.43;;
16516;SDS011;8371;52.272;9.746;2022-10-19T10:52:30;0.93;;;0.50;;
16516;SDS011;8371;52.272;9.746;2022-10-19T10:57:37;1.80;;;0.70;;
16516;SDS011;8371;52.272;9.746;2022-10-19T11:00:06;1.33;;;0.87;;
16516;SDS011;8371;52.272;9.746;2022-10-19T11:05:34;0.40;;;0.40;;
16516;SDS011;8371;52.272;9.746;2022-10-19T11:13:43;0.47;;;0.40;;
16516;SDS011;8371;52.272;9.746;2022-10-19T11:16:11;1.40;;;0.63;;
16516;SDS011;8371;52.272;9.746;2022-10-19T11:18:40;1.30;;;1.00;;
16516;SDS011;8371;52.272;9.746;2022-10-19T11:21:19;1.37;;;0.80;;
16516;SDS011;8371;52.272;9.746;2022-10-19T11:26:58;0.53;;;0.53;;
16516;SDS011;8371;52.272;9.746;2022-10-19T11:30:17;0.60;;;0.50;;
16516;SDS011;8371;52.272;9.746;2022-10-19T11:37:57;0.73;;;0.73;;
16516;SDS011;8371;52.272;9.746;2022-10-19T11:40:34;0.87;;;0.57;;
16516;SDS011;8371;52.272;9.746;2022-10-19T11:43:24;0.87;;;0.40;;
16516;SDS011;8371;52.272;9.746;2022-10-19T11:53:50;0.70;;;0.70;;
16516;SDS011;8371;52.272;9.746;2022-10-19T11:56:38;0.80;;;0.80;;
16516;SDS011;8371;52.272;9.746;2022-10-19T11:59:20;0.90;;;0.90;;
16516;SDS011;8371;52.272;9.746;2022-10-19T12:05:12;0.73;;;0.50;;
16516;SDS011;8371;52.272;9.746;2022-10-19T12:13:06;0.63;;;0.63;;
16516;SDS011;8371;52.272;9.746;2022-10-19T12:15:38;0.70;;;0.70;;
16516;SDS011;8371;52.272;9.746;2022-10-19T12:21:13;1.07;;;0.97;;
16516;SDS011;8371;52.272;9.746;2022-10-19T12:23:42;1.10;;;1.10;;
16516;SDS011;8371;52.272;9.746;2022-10-19T12:26:13;0.53;;;0.53;;
16516;SDS011;8371;52.272;9.746;2022-10-19T12:28:45;0.77;;;0.77;;
16516;SDS011;8371;52.272;9.746;2022-10-19T12:31:14;0.50;;;0.50;;
16516;SDS011;8371;52.272;9.746;2022-10-19T12:33:44;1.73;;;0.80;;
16516;SDS011;8371;52.272;9.746;2022-10-19T12:39:21;0.70;;;0.70;;
16516;SDS011;8371;52.272;9.746;2022-10-19T12:45:15;1.03;;;1.00;;
16516;SDS011;8371;52.272;9.746;2022-10-19T12:53:40;0.33;;;0.33;;
16516;SDS011;8371;52.272;9.746;2022-10-19T13:01:24;3.40;;;1.20;;
16516;SDS011;8371;52.272;9.746;2022-10-19T13:04:37;0.97;;;0.80;;
16516;SDS011;8371;52.272;9.746;2022-10-19T13:06:34;1.00;;;0.90;;
16516;SDS011;8371;52.272;9.746;2022-10-19T13:09:06;0.70;;;0.70;;
16516;SDS011;8371;52.272;9.746;2022-10-19T13:11:35;3.50;;;0.80;;
16516;SDS011;8371;52.272;9.746;2022-10-19T13:14:03;0.60;;;0.60;;
16516;SDS011;8371;52.272;9.746;2022-10-19T13:16:38;0.87;;;0.67;;
16516;SDS011;8371;52.272;9.746;2022-10-19T13:21:42;0.43;;;0.43;;
16516;SDS011;8371;52.272;9.746;2022-10-19T13:24:23;0.77;;;0.77;;
16516;SDS011;8371;52.272;9.746;2022-10-19T13:35:31;1.03;;;1.00;;
16516;SDS011;8371;52.272;9.746;2022-10-19T13:40:37;0.83;;;0.83;;
16516;SDS011;8371;52.272;9.746;2022-10-19T13:43:19;1.07;;;0.83;;
16516;SDS011;8371;52.272;9.746;2022-10-19T13:48:48;0.60;;;0.60;;
16516;SDS011;8371;52.272;9.746;2022-10-19T13:53:59;0.83;;;0.70;;
16516;SDS011;8371;52.272;9.746;2022-10-19T13:56:41;1.80;;;0.80;;
16516;SDS011;8371;52.272;9.746;2022-10-19T13:59:20;1.67;;;0.80;;
16516;SDS011;8371;52.272;9.746;2022-10-19T14:07:29;1.60;;;0.80;;
16516;SDS011;8371;52.272;9.746;2022-10-19T14:10:01;3.23;;;0.90;;
16516;SDS011;8371;52.272;9.746;2022-10-19T14:12:35;1.77;;;0.70;;
16516;SDS011;8371;52.272;9.746;2022-10-19T14:17:49;1.10;;;0.90;;
16516;SDS011;8371;52.272;9.746;2022-10-19T14:20:34;0.90;;;0.90;;
16516;SDS011;8371;52.272;9.746;2022-10-19T14:23:18;2.27;;;0.90;;
16516;SDS011;8371;52.272;9.746;2022-10-19T14:25:51;1.23;;;1.00;;
16516;SDS011;8371;52.272;9.746;2022-10-19T14:28:19;0.70;;;0.70;;
16516;SDS011;8371;52.272;9.746;2022-10-19T14:30:52;0.80;;;0.80;;
16516;SDS011;8371;52.272;9.746;2022-10-19T14:33:20;1.27;;;1.17;;
16516;SDS011;8371;52.272;9.746;2022-10-19T14:35:50;1.10;;;1.10;;
16516;SDS011;8371;52.272;9.746;2022-10-19T14:38:17;0.90;;;0.90;;
16516;SDS011;8371;52.272;9.746;2022-10-19T14:40:45;1.00;;;1.00;;
16516;SDS011;8371;52.272;9.746;2022-10-19T14:43:27;1.40;;;1.30;;
16516;SDS011;8371;52.272;9.746;2022-10-19T14:48:37;1.40;;;1.30;;
16516;SDS011;8371;52.272;9.746;2022-10-19T14:54:21;1.73;;;1.63;;
16516;SDS011;8371;52.272;9.746;2022-10-19T14:57:00;1.77;;;1.67;;
16516;SDS011;8371;52.272;9.746;2022-10-19T15:02:21;1.40;;;1.30;;
16516;SDS011;8371;52.272;9.746;2022-10-19T15:04:49;1.50;;;1.40;;
16516;SDS011;8371;52.272;9.746;2022-10-19T15:07:22;1.63;;;1.53;;
16516;SDS011;8371;52.272;9.746;2022-10-19T15:09:50;1.57;;;1.47;;
16516;SDS011;8371;52.272;9.746;2022-10-19T15:12:26;1.70;;;1.60;;
16516;SDS011;8371;52.272;9.746;2022-10-19T15:14:53;3.10;;;1.80;;
16516;SDS011;8371;52.272;9.746;2022-10-19T15:19:49;2.40;;;2.30;;
16516;SDS011;8371;52.272;9.746;2022-10-19T15:27:34;2.53;;;1.63;;
16516;SDS011;8371;52.272;9.746;2022-10-19T15:30:05;1.47;;;1.47;;
16516;SDS011;8371;52.272;9.746;2022-10-19T15:33:06;1.50;;;1.40;;
16516;SDS011;8371;52.272;9.746;2022-10-19T15:35:30;1.97;;;1.80;;
16516;SDS011;8371;52.272;9.746;2022-10-19T15:38:05;1.60;;;1.50;;
16516;SDS011;8371;52.272;9.746;2022-10-19T15:40:40;1.40;;;1.30;;
16516;SDS011;8371;52.272;9.746;2022-10-19T15:45:58;1.20;;;1.20;;
16516;SDS011;8371;52.272;9.746;2022-10-19T15:48:42;1.37;;;1.30;;
16516;SDS011;8371;52.272;9.746;2022-10-19T15:51:35;1.37;;;1.27;;
16516;SDS011;8371;52.272;9.746;2022-10-19T15:53:49;1.80;;;1.70;;
16516;SDS011;8371;52.272;9.746;2022-10-19T15:56:17;2.40;;;1.40;;
16516;SDS011;8371;52.272;9.746;2022-10-19T15:58:46;3.67;;;1.40;;
16516;SDS011;8371;52.272;9.746;2022-10-19T16:01:20;2.47;;;1.87;;
16516;SDS011;8371;52.272;9.746;2022-10-19T16:03:47;1.37;;;1.20;;
16516;SDS011;8371;52.272;9.746;2022-10-19T16:06:14;1.50;;;1.50;;
16516;SDS011;8371;52.272;9.746;2022-10-19T16:08:40;2.63;;;1.77;;
16516;SDS011;8371;52.272;9.746;2022-10-19T16:11:08;3.60;;;3.30;;
16516;SDS011;8371;52.272;9.746;2022-10-19T16:13:36;4.30;;;4.00;;
16516;SDS011;8371;52.272;9.746;2022-10-19T16:16:02;3.80;;;2.83;;
16516;SDS011;8371;52.272;9.746;2022-10-19T16:18:30;2.47;;;2.27;;
16516;SDS011;8371;52.272;9.746;2022-10-19T16:20:56;2.00;;;1.83;;
16516;SDS011;8371;52.272;9.746;2022-10-19T16:23:21;2.07;;;1.73;;
16516;SDS011;8371;52.272;9.746;2022-10-19T16:25:48;3.17;;;1.93;;
16516;SDS011;8371;52.272;9.746;2022-10-19T16:28:13;1.70;;;1.60;;
16516;SDS011;8371;52.272;9.746;2022-10-19T16:30:39;1.73;;;1.63;;
16516;SDS011;8371;52.272;9.746;2022-10-19T16:33:05;2.10;;;1.50;;
16516;SDS011;8371;52.272;9.746;2022-10-19T16:35:30;1.80;;;1.30;;
16516;SDS011;8371;52.272;9.746;2022-10-19T16:37:56;3.03;;;1.60;;
16516;SDS011;8371;52.272;9.746;2022-10-19T16:40:23;1.90;;;1.80;;
16516;SDS011;8371;52.272;9.746;2022-10-19T16:42:49;1.67;;;1.57;;
16516;SDS011;8371;52.272;9.746;2022-10-19T16:45:15;1.37;;;1.37;;
16516;SDS011;8371;52.272;9.746;2022-10-19T16:47:41;1.50;;;1.50;;
16516;SDS011;8371;52.272;9.746;2022-10-19T16:50:07;1.43;;;1.43;;
16516;SDS011;8371;52.272;9.746;2022-10-19T16:52:35;1.97;;;1.07;;
16516;SDS011;8371;52.272;9.746;2022-10-19T16:55:01;1.67;;;1.57;;
16516;SDS011;8371;52.272;9.746;2022-10-19T16:57:26;1.77;;;1.67;;
16516;SDS011;8371;52.272;9.746;2022-10-19T16:59:52;1.33;;;1.33;;
16516;SDS011;8371;52.272;9.746;2022-10-19T17:02:19;5.23;;;1.50;;
16516;SDS011;8371;52.272;9.746;2022-10-19T17:04:45;1.47;;;1.37;;
16516;SDS011;8371;52.272;9.746;2022-10-19T17:07:12;1.30;;;1.20;;
16516;SDS011;8371;52.272;9.746;2022-10-19T17:09:38;3.27;;;1.20;;
16516;SDS011;8371;52.272;9.746;2022-10-19T17:12:05;1.03;;;1.00;;
16516;SDS011;8371;52.272;9.746;2022-10-19T17:14:34;1.43;;;1.40;;
16516;SDS011;8371;52.272;9.746;2022-10-19T17:17:00;2.50;;;1.37;;
16516;SDS011;8371;52.272;9.746;2022-10-19T17:19:27;1.30;;;1.23;;
16516;SDS011;8371;52.272;9.746;2022-10-19T17:21:55;1.70;;;1.60;;
16516;SDS011;8371;52.272;9.746;2022-10-19T17:24:23;1.30;;;1.30;;
16516;SDS011;8371;52.272;9.746;2022-10-19T17:26:50;2.40;;;1.67;;
16516;SDS011;8371;52.272;9.746;2022-10-19T17:29:17;1.10;;;1.10;;
16516;SDS011;8371;52.272;9.746;2022-10-19T17:31:44;2.20;;;1.63;;
16516;SDS011;8371;52.272;9.746;2022-10-19T17:34:15;1.43;;;1.33;;
16516;SDS011;8371;52.272;9.746;2022-10-19T17:36:39;1.10;;;1.10;;
16516;SDS011;8371;52.272;9.746;2022-10-19T17:39:11;1.17;;;1.17;;